Latest Weather Observations for White Cliffs AWS

IDN60801

Issued at 10:05 am EDT Saturday 31 January 2015 (issued every 30 minutes, with the page automatically refreshed every 10 minutes)

About weather observations | Map of weather stations | Latest weather observations for NSW | Other Formats
Station Details ID: 046129 Name: WHITE CLIFFS AWS Lat: -30.85 Lon: 143.07 Height: 158.0 m
Data from the previous 72 hours. | See also: Recent months at White Cliffs AWS
Date/Time
EDT
Temp
°C
App
Temp
°C
Dew
Point
Rel
Hum
%
Delta-T
°C
Wind Press
QNH
hPa
Press
MSL
hPa
Rain
since 9 am
mm
Dir
 
Spd
km/h
Gust
km/h
Spd
kts
Gust
kts
31/10:00am 24.0 20.8 3.3 26 10.1 SSE 9 13 5 7 1012.1 1011.0 0.0
31/09:30am 23.0 19.4 3.0 27 9.7 SSE 11 17 6 9 1012.1 1011.0 0.0
31/09:00am 21.8 18.3 3.5 30 8.9 S 11 15 6 8 1012.1 1011.0 0.0
31/08:30am 19.5 16.4 3.6 35 7.6 SSW 9 13 5 7 1011.9 1010.8 0.0
31/08:00am 17.8 14.7 3.7 39 6.7 SW 9 11 5 6 1011.8 1010.7 0.0
31/07:30am 16.7 14.5 3.4 41 6.2 SW 4 9 2 5 1011.5 1010.4 0.0
31/07:00am 16.7 12.7 3.0 40 6.3 S 13 15 7 8 1010.9 1009.7 0.0
31/06:30am 15.9 12.0 3.4 43 5.8 S 13 15 7 8 1010.4 1009.2 0.0
31/06:00am 16.8 12.5 3.5 41 6.2 S 15 17 8 9 1010.3 1009.1 0.0
31/05:30am 17.3 13.1 3.6 40 6.4 S 15 17 8 9 1010.2 1009.0 0.0
31/05:00am 17.2 13.4 3.8 41 6.3 SSW 13 15 7 8 1010.1 1008.9 0.0
31/04:30am 17.7 13.5 3.9 40 6.5 S 15 19 8 10 1009.9 1008.7 0.0
31/04:00am 17.9 14.2 4.5 41 6.4 S 13 15 7 8 1009.6 1008.5 0.0
31/03:30am 18.0 14.3 4.2 40 6.6 SSW 13 13 7 7 1009.6 1008.5 0.0
31/03:00am 18.8 14.7 4.6 39 6.9 SSW 15 15 8 8 1009.5 1008.4 0.0
31/02:30am 19.4 15.7 4.3 37 7.3 SSW 13 15 7 8 1009.5 1008.4 0.0
31/02:00am 20.1 15.7 4.6 36 7.6 SSW 17 19 9 10 1009.5 1008.4 0.0
31/01:30am 20.6 16.5 4.6 35 7.8 S 15 17 8 9 1009.7 1008.6 0.0
31/01:00am 20.9 17.2 4.5 34 8.0 SSW 13 17 7 9 1010.0 1008.8 0.0
31/12:30am 21.4 17.2 4.0 32 8.5 SSW 15 17 8 9 1010.2 1009.0 0.0
31/12:00am 21.4 18.3 3.6 31 8.6 SSW 9 11 5 6 1010.3 1009.1 0.0
 
Date/Time
EDT
Temp
°C
App
Temp
°C
Dew
Point
Rel
Hum
%
Delta-T
°C
Wind Press
QNH
hPa
Press
MSL
hPa
Rain
since 9 am
mm
Dir
 
Spd
km/h
Gust
km/h
Spd
kts
Gust
kts
30/11:30pm 22.0 18.5 3.6 30 8.9 SSW 11 11 6 6 1010.3 1009.1 0.0
30/11:00pm 22.5 19.4 3.6 29 9.2 SSW 9 11 5 6 1010.3 1009.1 0.0
30/10:30pm 23.2 20.0 3.2 27 9.7 S 9 11 5 6 1010.2 1009.0 0.0
30/10:00pm 24.2 20.2 2.9 25 10.4 SSW 13 15 7 8 1009.9 1008.7 0.0
30/09:30pm 25.3 21.3 2.7 23 11.1 SSW 13 15 7 8 1009.4 1008.3 0.0
30/09:00pm 26.6 22.0 1.8 20 12.0 S 15 19 8 10 1009.1 1008.0 0.0
30/08:30pm 27.5 21.9 1.1 18 12.7 S 20 26 11 14 1008.9 1007.8 0.0
30/08:00pm 28.4 22.1 1.8 18 13.1 S 24 30 13 16 1008.7 1007.6 0.0
30/07:30pm 29.1 22.6 2.4 18 13.3 S 26 37 14 20 1008.4 1007.3 0.0
30/07:00pm 29.9 22.6 2.2 17 13.9 SSW 30 43 16 23 1008.2 1007.1 0.0
30/06:30pm 30.0 22.9 1.5 16 14.1 SSW 28 35 15 19 1008.1 1007.0 0.0
30/06:00pm 30.7 23.9 1.1 15 14.6 SSW 26 33 14 18 1008.0 1006.9 0.0
30/05:30pm 30.2 24.1 2.5 17 13.9 SSW 24 37 13 20 1008.3 1007.2 0.0
30/05:00pm 30.4 24.5 1.8 16 14.3 SSW 22 39 12 21 1008.6 1007.5 0.0
30/04:30pm 30.4 24.1 1.8 16 14.2 SSW 24 41 13 22 1008.8 1007.7 0.0
30/04:00pm 30.2 23.7 2.5 17 13.9 S 26 37 14 20 1009.0 1007.9 0.0
30/03:30pm 30.3 23.9 3.4 18 13.7 S 26 43 14 23 1009.3 1008.2 0.0
30/03:00pm 30.2 24.2 3.3 18 13.7 S 24 35 13 19 1010.1 1008.9 0.0
30/02:30pm 30.7 24.2 2.9 17 14.1 SSW 26 41 14 22 1010.5 1009.3 0.0
30/02:00pm 29.7 23.1 2.1 17 13.8 S 26 35 14 19 1010.8 1009.6 0.0
30/01:30pm 29.4 22.8 1.8 17 13.6 SSW 26 39 14 21 1011.3 1010.2 0.0
30/01:00pm 29.2 23.6 3.2 19 13.2 S 22 37 12 20 1011.7 1010.6 0.0
30/12:30pm 28.3 22.2 2.5 19 12.8 SSW 24 33 13 18 1011.7 1010.6 0.0
30/12:00pm 28.8 23.6 3.6 20 12.8 S 20 33 11 18 1011.9 1010.8 0.0
30/11:30am 27.3 22.8 4.4 23 11.7 SSE 17 24 9 13 1012.0 1010.9 0.0
30/11:00am 26.2 21.4 4.6 25 11.0 SSE 19 24 10 13 1012.0 1010.9 0.0
30/10:30am 25.6 20.6 4.7 26 10.6 S 20 26 11 14 1012.1 1011.0 0.0
30/10:00am 25.2 20.4 4.9 27 10.3 SSE 19 22 10 12 1012.2 1011.1 0.0
30/09:30am 23.6 18.8 4.5 29 9.5 S 19 24 10 13 1012.0 1010.9 0.0
30/09:00am 22.0 16.7 5.0 33 8.5 S 22 30 12 16 1011.9 1010.8 0.0
30/08:30am 20.7 15.6 5.9 38 7.4 S 22 26 12 14 1011.7 1010.6 0.0
30/08:00am 19.4 14.8 6.5 43 6.5 S 20 26 11 14 1011.4 1010.3 0.0
30/07:30am 18.1 13.6 6.3 46 5.9 S 19 20 10 11 1011.3 1010.2 0.0
30/07:00am 18.0 13.9 6.2 46 5.9 S 17 20 9 11 1011.0 1009.8 0.0
30/06:30am 17.6 13.9 6.2 47 5.6 SSW 15 17 8 9 1010.6 1009.4 0.0
30/06:00am 17.5 14.1 6.1 47 5.6 SSW 13 15 7 8 1010.4 1009.2 0.0
30/05:30am 18.2 14.8 6.1 45 6.0 SSW 13 15 7 8 1010.3 1009.1 0.0
30/05:00am 18.4 15.3 5.6 43 6.3 SSW 11 13 6 7 1010.1 1008.9 0.0
30/04:30am 18.4 15.3 5.6 43 6.3 SSW 11 13 6 7 1009.9 1008.7 0.0
30/04:00am 20.5 16.5 4.9 36 7.7 S 15 17 8 9 1010.0 1008.8 0.0
30/03:30am 21.1 16.8 5.1 35 7.9 SSE 17 19 9 10 1010.2 1009.0 0.0
30/03:00am 21.6 17.6 4.7 33 8.4 SSE 15 19 8 10 1010.3 1009.1 0.0
30/02:30am 21.4 17.0 4.9 34 8.2 S 17 20 9 11 1010.3 1009.1 0.0
30/02:00am 21.5 17.6 5.4 35 8.1 S 15 17 8 9 1010.5 1009.3 0.0
30/01:30am 21.1 17.2 5.5 36 7.8 SSW 15 17 8 9 1010.6 1009.4 0.0
30/01:00am 21.3 17.5 5.6 36 7.9 SSW 15 17 8 9 1010.9 1009.7 0.0
30/12:30am 22.1 18.6 5.5 34 8.4 SSW 13 13 7 7 1011.0 1009.8 0.0
30/12:00am 22.8 19.0 5.7 33 8.7 SSW 15 15 8 8 1011.1 1010.0 0.0
 
Date/Time
EDT
Temp
°C
App
Temp
°C
Dew
Point
Rel
Hum
%
Delta-T
°C
Wind Press
QNH
hPa
Press
MSL
hPa
Rain
since 9 am
mm
Dir
 
Spd
km/h
Gust
km/h
Spd
kts
Gust
kts
29/11:30pm 24.2 20.7 5.5 30 9.5 S 13 15 7 8 1011.1 1010.0 0.0
29/11:00pm 24.6 21.2 5.9 30 9.6 S 13 15 7 8 1011.0 1009.8 0.0
29/10:30pm 25.9 22.1 6.0 28 10.4 S 15 19 8 10 1010.9 1009.7 0.0
29/10:00pm 26.3 23.0 6.3 28 10.5 S 13 15 7 8 1010.7 1009.5 0.0
29/09:30pm 27.2 23.9 6.6 27 10.9 SSW 13 15 7 8 1010.5 1009.3 0.0
29/09:00pm 28.6 25.0 6.7 25 11.7 S 15 19 8 10 1010.2 1009.0 0.0
29/08:30pm 29.5 24.4 6.2 23 12.4 SSW 22 30 12 16 1009.9 1008.7 0.0
29/08:00pm 30.4 25.1 7.0 23 12.7 S 24 33 13 18 1009.6 1008.5 0.0
29/07:30pm 31.2 26.1 7.6 23 13.0 SSW 24 30 13 16 1009.3 1008.2 0.0
29/07:00pm 31.6 26.9 9.2 25 12.7 SSW 24 32 13 17 1009.0 1007.9 0.0
29/06:30pm 32.2 27.6 9.7 25 12.9 S 24 37 13 20 1008.9 1007.8 0.0
29/06:00pm 32.3 28.7 10.4 26 12.7 S 20 28 11 15 1008.9 1007.8 0.0
29/05:30pm 32.2 28.8 11.4 28 12.2 S 20 28 11 15 1009.1 1008.0 0.0
29/05:00pm 31.8 27.6 9.9 26 12.6 SSE 22 32 12 17 1009.2 1008.1 0.0
29/04:30pm 32.3 28.7 9.8 25 12.9 SSE 19 28 10 15 1009.7 1008.6 0.0
29/04:00pm 32.3 29.4 9.8 25 12.9 SSW 15 24 8 13 1010.1 1008.9 0.0
29/03:30pm 31.9 28.2 9.4 25 12.8 SSE 19 26 10 14 1010.5 1009.3 0.0
29/03:00pm 31.1 27.4 9.3 26 12.3 SSW 19 28 10 15 1010.9 1009.7 0.0
29/02:30pm 30.9 27.4 10.8 29 11.6 S 20 33 11 18 1011.3 1010.2 0.0
29/02:00pm 30.7 27.0 10.1 28 11.8 SSE 20 30 11 16 1011.7 1010.6 0.0
29/01:30pm 30.4 27.2 9.8 28 11.7 SE 17 28 9 15 1011.9 1010.8 0.0
29/01:00pm 30.2 27.3 9.7 28 11.6 SSE 15 26 8 14 1012.1 1011.0 0.0
29/12:30pm 29.8 27.1 10.4 30 11.1 ESE 15 20 8 11 1012.3 1011.2 0.0
29/12:00pm 29.1 27.0 11.2 33 10.3 ESE 13 22 7 12 1012.6 1011.5 0.0
29/11:30am 27.6 25.8 10.8 35 9.6 E 11 19 6 10 1012.8 1011.7 0.0
29/11:00am 27.2 25.3 11.7 38 9.0 E 13 20 7 11 1013.0 1011.9 0.0
29/10:30am 26.2 24.2 11.5 40 8.4 ENE 13 17 7 9 1012.9 1011.8 0.0
29/10:00am 25.8 23.9 11.9 42 8.0 E 13 20 7 11 1012.9 1011.8 0.0
29/09:30am 25.3 22.8 12.2 44 7.6 E 17 20 9 11 1012.7 1011.6 0.0
29/09:00am 24.2 21.7 12.2 47 6.9 E 17 24 9 13 1012.6 1011.5 0.0
29/08:30am 23.4 21.1 13.0 52 6.0 E 17 24 9 13 1012.2 1011.1 0.0
29/08:00am 22.3 20.0 13.1 56 5.3 E 17 20 9 11 1011.7 1010.6 0.0
29/07:30am 20.9 19.5 13.4 62 4.3 E 13 15 7 8 1011.4 1010.3 0.0
29/07:00am 20.3 18.4 13.0 63 4.2 E 15 17 8 9 1010.9 1009.7 0.0
29/06:30am 21.0 19.2 13.2 61 4.5 E 15 19 8 10 1010.6 1009.4 0.0
29/06:00am 21.5 19.7 13.2 59 4.8 ESE 15 19 8 10 1010.4 1009.2 0.0
29/05:30am 21.9 19.7 13.3 58 5.0 ESE 17 20 9 11 1010.1 1008.9 0.0
29/05:00am 22.2 20.4 13.3 57 5.2 ESE 15 19 8 10 1009.7 1008.6 0.0
29/04:30am 22.3 19.9 12.8 55 5.5 ESE 17 20 9 11 1009.6 1008.5 0.0
29/04:00am 23.0 20.7 12.9 53 5.8 ESE 17 22 9 12 1009.4 1008.3 0.0
29/03:30am 23.3 20.8 12.3 50 6.3 ESE 17 22 9 12 1009.4 1008.3 0.0
29/03:00am 24.0 21.3 11.7 46 7.0 ESE 17 20 9 11 1009.5 1008.4 0.0
29/02:30am 24.0 21.2 11.3 45 7.2 ESE 17 19 9 10 1009.6 1008.5 0.0
29/02:00am 24.9 21.5 10.4 40 8.1 ESE 19 22 10 12 1009.7 1008.6 0.0
29/01:30am 25.4 21.3 10.1 38 8.5 SE 22 26 12 14 1009.7 1008.6 0.0
29/01:00am 25.0 21.7 11.6 43 7.7 S 20 28 11 15 1009.6 1008.5 0.0
29/12:30am 24.8 22.1 11.7 44 7.5 S 17 20 9 11 1009.5 1008.4 0.0
29/12:00am 25.0 22.3 11.6 43 7.7 SSW 17 20 9 11 1009.5 1008.4 0.0
 
Date/Time
EDT
Temp
°C
App
Temp
°C
Dew
Point
Rel
Hum
%
Delta-T
°C
Wind Press
QNH
hPa
Press
MSL
hPa
Rain
since 9 am
mm
Dir
 
Spd
km/h
Gust
km/h
Spd
kts
Gust
kts
28/11:30pm 26.6 23.2 10.7 37 9.0 S 19 24 10 13 1009.6 1008.5 0.0
28/11:00pm 26.9 23.6 11.0 37 9.1 S 19 24 10 13 1009.4 1008.3 0.0
28/10:30pm 27.3 24.0 10.9 36 9.4 S 19 22 10 12 1009.2 1008.1 0.0
28/10:00pm 28.0 24.6 10.7 34 9.9 S 19 22 10 12 1009.1 1008.0 0.0
28/09:30pm 28.5 25.3 11.1 34 10.0 S 19 22 10 12 1008.9 1007.8 0.0
28/09:00pm 29.1 25.9 11.2 33 10.4 S 19 24 10 13 1008.4 1007.3 0.0
28/08:30pm 29.8 25.9 10.9 31 10.9 S 22 32 12 17 1008.1 1007.0 0.0
28/08:00pm 30.3 25.4 11.3 31 11.1 S 28 35 15 19 1007.8 1006.7 0.0
28/07:30pm 31.3 26.5 11.7 30 11.5 SSE 28 39 15 21 1007.6 1006.5 0.0
28/07:00pm 31.4 26.3 10.7 28 12.0 SSE 28 37 15 20 1007.3 1006.2 0.0
28/06:30pm 31.7 26.5 11.5 29 11.9 S 30 41 16 22 1007.1 1006.0 0.0
28/06:15pm 31.5 26.2 11.3 29 11.8 S 30 48 16 26 1007.1 1006.0 0.0
28/06:00pm 31.5 25.8 11.3 29 11.8 S 32 44 17 24 1007.1 1006.0 0.0
28/05:46pm 31.8 27.1 12.1 30 11.7 SSE 28 50 15 27 1007.0 1005.9 0.0
28/05:30pm 31.9 27.6 12.2 30 11.7 SSE 26 37 14 20 1007.3 1006.2 0.0
28/05:01pm 31.9 27.1 11.7 29 11.9 S 28 50 15 27 1007.3 1006.2 0.0
28/05:00pm 31.9 27.6 12.2 30 11.7 S 26 41 14 22 1007.3 1006.2 0.0
28/04:30pm 31.3 26.9 11.7 30 11.5 SSE 26 39 14 21 1007.6 1006.5 0.0
28/04:00pm 31.1 26.4 12.0 31 11.3 SSE 28 41 15 22 1007.9 1006.8 0.0
28/03:30pm 31.0 26.3 11.9 31 11.3 S 28 41 15 22 1008.1 1007.0 0.0
28/03:00pm 30.4 25.9 11.4 31 11.1 S 26 33 14 18 1008.4 1007.3 0.0
28/02:30pm 30.1 25.7 11.6 32 10.8 S 26 41 14 22 1008.7 1007.6 0.0
28/02:00pm 28.8 23.9 11.4 34 10.1 S 28 39 15 21 1009.0 1007.9 0.0
28/01:30pm 28.1 23.9 11.2 35 9.7 S 24 35 13 19 1009.4 1008.3 0.0
28/01:00pm 28.2 24.1 11.3 35 9.8 SSE 24 37 13 20 1009.6 1008.5 0.0
28/12:30pm 27.0 22.4 11.1 37 9.1 SSE 26 33 14 18 1009.9 1008.7 0.0
28/12:00pm 26.2 21.9 10.8 38 8.7 SSE 24 33 13 18 1010.1 1008.9 0.0
28/11:30am 25.1 20.2 9.8 38 8.5 SSE 26 33 14 18 1010.4 1009.2 0.0
28/11:00am 24.0 18.5 9.2 39 8.1 SSE 28 37 15 20 1010.5 1009.3 0.0
28/10:30am 22.9 16.4 8.2 39 7.8 S 32 37 17 20 1010.5 1009.3 0.0

Other Formats:

Comma delimited format used in spreadsheet applications
http://www.bom.gov.au/fwo/IDN60801/IDN60801.95699.axf

JavaScript Object Notation format (JSON) in row-major order
http://www.bom.gov.au/fwo/IDN60801/IDN60801.95699.json